Time;durP1;ratioP1;P1;durP2;ratioP2;P2;SDS_P1;SDS_P2;PMS_P1;PMS_P2;Temp;Humidity;BMP_temperature;BMP_pressure;BME280_temperature;BME280_humidity;BME280_pressure;Samples;Min_cycle;Max_cycle;Signal;HPM_P1;HPM_P2
2022/01/11 00:01:32;;;;;;;3.00;2.00;;;;;;;;;;5052849;28;20018;-69
2022/01/11 00:03:58;;;;;;;2.05;1.52;;;;;;;;;;5053299;28;20021;-69
2022/01/11 00:06:39;;;;;;;2.38;1.67;;;;;;;;;;5053263;28;20025;-69
2022/01/11 00:09:19;;;;;;;1.60;1.50;;;;;;;;;;5053294;28;20104;-69
2022/01/11 00:11:49;;;;;;;2.13;1.70;;;;;;;;;;5052865;28;20028;-69
2022/01/11 00:14:15;;;;;;;2.00;1.55;;;;;;;;;;5052528;28;20028;-69
2022/01/11 00:16:41;;;;;;;2.03;1.50;;;;;;;;;;5033323;28;20097;-69
2022/01/11 00:19:07;;;;;;;1.88;1.65;;;;;;;;;;5033137;28;20116;-69
2022/01/11 00:21:38;;;;;;;1.92;1.70;;;;;;;;;;5032568;28;20061;-69
2022/01/11 00:26:49;;;;;;;2.55;1.75;;;;;;;;;;5053254;28;20099;-68
2022/01/11 00:29:15;;;;;;;1.42;1.25;;;;;;;;;;5052696;28;20040;-68
2022/01/11 00:31:43;;;;;;;2.17;1.70;;;;;;;;;;5052272;28;20037;-68
2022/01/11 00:34:10;;;;;;;1.83;1.45;;;;;;;;;;5052739;28;20568;-68
2022/01/11 00:36:42;;;;;;;2.90;1.70;;;;;;;;;;5053003;28;20029;-69
2022/01/11 00:39:12;;;;;;;1.92;1.63;;;;;;;;;;5052753;28;20099;-69
2022/01/11 00:41:38;;;;;;;2.55;1.50;;;;;;;;;;5042817;28;20042;-69
2022/01/11 00:44:05;;;;;;;2.45;1.80;;;;;;;;;;5032306;28;20492;-69
2022/01/11 00:46:31;;;;;;;1.98;1.50;;;;;;;;;;5033013;28;20485;-69
2022/01/11 00:48:57;;;;;;;2.28;1.45;;;;;;;;;;5032637;28;20025;-69
2022/01/11 00:51:24;;;;;;;2.47;1.65;;;;;;;;;;5031923;28;20040;-69
2022/01/11 00:53:50;;;;;;;2.17;1.80;;;;;;;;;;5032235;28;20036;-69
2022/01/11 00:56:16;;;;;;;1.52;1.10;;;;;;;;;;5046518;28;20617;-69
2022/01/11 00:58:42;;;;;;;1.77;1.40;;;;;;;;;;5072613;28;20134;-69
2022/01/11 01:01:08;;;;;;;1.85;1.50;;;;;;;;;;5072346;28;20118;-69
2022/01/11 01:03:35;;;;;;;2.08;1.58;;;;;;;;;;5071689;28;20025;-69
2022/01/11 01:06:01;;;;;;;2.28;1.90;;;;;;;;;;5060137;28;20024;-69
2022/01/11 01:08:27;;;;;;;1.48;1.38;;;;;;;;;;5052284;28;20107;-69
2022/01/11 01:10:53;;;;;;;1.77;1.45;;;;;;;;;;5052607;28;20399;-69
2022/01/11 01:13:22;;;;;;;2.13;1.48;;;;;;;;;;5052067;28;20052;-69
2022/01/11 01:15:49;;;;;;;2.30;1.48;;;;;;;;;;5038896;28;20032;-69
2022/01/11 01:18:17;;;;;;;2.28;1.65;;;;;;;;;;5031941;28;20021;-69
2022/01/11 01:20:44;;;;;;;2.55;1.55;;;;;;;;;;5032630;28;20052;-69
2022/01/11 01:23:10;;;;;;;1.50;1.38;;;;;;;;;;5032208;28;20521;-69
2022/01/11 01:25:36;;;;;;;1.90;1.58;;;;;;;;;;5031866;28;20025;-69
2022/01/11 01:28:03;;;;;;;2.03;1.60;;;;;;;;;;5038694;28;20028;-69
2022/01/11 01:30:29;;;;;;;2.20;1.27;;;;;;;;;;5071930;28;20507;-69
2022/01/11 01:32:55;;;;;;;1.63;1.52;;;;;;;;;;5071797;28;20028;-69
2022/01/11 01:35:25;;;;;;;1.45;1.35;;;;;;;;;;5071685;28;20028;-69
2022/01/11 01:37:51;;;;;;;1.77;1.40;;;;;;;;;;5070599;28;20514;-69
2022/01/11 01:40:17;;;;;;;1.92;1.38;;;;;;;;;;5071755;28;20020;-69
2022/01/11 01:42:44;;;;;;;2.90;1.60;;;;;;;;;;5053227;28;20118;-68
2022/01/11 01:45:11;;;;;;;2.33;1.42;;;;;;;;;;5051105;28;20025;-68
2022/01/11 01:47:37;;;;;;;1.90;1.60;;;;;;;;;;5052053;28;20515;-68
2022/01/11 01:50:05;;;;;;;2.13;1.35;;;;;;;;;;5051531;28;20025;-68
2022/01/11 01:52:32;;;;;;;2.45;1.52;;;;;;;;;;5051929;28;20507;-68
2022/01/11 01:54:58;;;;;;;1.60;1.50;;;;;;;;;;5052652;28;20021;-68
2022/01/11 01:57:24;;;;;;;1.80;1.50;;;;;;;;;;5055402;28;20504;-68
2022/01/11 01:59:50;;;;;;;1.75;1.40;;;;;;;;;;5055948;28;20400;-68
2022/01/11 02:02:17;;;;;;;2.38;1.80;;;;;;;;;;5055987;28;20036;-68
2022/01/11 02:04:43;;;;;;;1.80;1.40;;;;;;;;;;5053945;28;20100;-68
2022/01/11 02:07:09;;;;;;;1.95;1.45;;;;;;;;;;5039172;28;20021;-67
2022/01/11 02:09:36;;;;;;;1.58;1.42;;;;;;;;;;5050897;28;20036;-67
2022/01/11 02:12:02;;;;;;;1.58;1.20;;;;;;;;;;5036859;28;20036;-67
2022/01/11 02:14:28;;;;;;;2.15;1.30;;;;;;;;;;5038744;28;20028;-67
2022/01/11 02:16:56;;;;;;;1.83;1.17;;;;;;;;;;5055388;28;20036;-67
2022/01/11 02:19:22;;;;;;;2.55;1.60;;;;;;;;;;5055160;28;20116;-67
2022/01/11 02:21:48;;;;;;;1.67;1.05;;;;;;;;;;5054927;28;20017;-67
2022/01/11 02:24:15;;;;;;;2.33;1.60;;;;;;;;;;5041867;28;20036;-67
2022/01/11 02:26:41;;;;;;;1.73;1.30;;;;;;;;;;5035300;28;20480;-67
2022/01/11 02:29:07;;;;;;;1.73;1.38;;;;;;;;;;5035412;28;20029;-67
2022/01/11 02:31:36;;;;;;;1.27;1.10;;;;;;;;;;5034824;28;20021;-67
2022/01/11 02:34:02;;;;;;;2.45;1.73;;;;;;;;;;5067557;28;20479;-67
2022/01/11 02:36:30;;;;;;;2.20;1.50;;;;;;;;;;5074972;28;20078;-67
2022/01/11 02:38:57;;;;;;;1.98;1.48;;;;;;;;;;5075053;28;20081;-67
2022/01/11 02:41:25;;;;;;;1.92;1.20;;;;;;;;;;5053061;28;20028;-67
2022/01/11 02:43:51;;;;;;;1.95;1.40;;;;;;;;;;5035083;28;20021;-68
2022/01/11 02:46:19;;;;;;;1.92;1.20;;;;;;;;;;5034938;28;20026;-68
2022/01/11 02:48:45;;;;;;;2.05;1.50;;;;;;;;;;5034932;28;20032;-68
2022/01/11 02:51:12;;;;;;;3.17;1.30;;;;;;;;;;5034791;28;20034;-68
2022/01/11 02:53:42;;;;;;;1.45;1.10;;;;;;;;;;5034226;28;20025;-68
2022/01/11 02:56:09;;;;;;;1.60;1.25;;;;;;;;;;5034352;28;20068;-68
2022/01/11 02:58:35;;;;;;;2.10;1.08;;;;;;;;;;5035083;28;20037;-66
2022/01/11 03:01:01;;;;;;;2.10;1.30;;;;;;;;;;5034647;28;20040;-67
2022/01/11 03:03:27;;;;;;;1.90;1.20;;;;;;;;;;5034545;28;20030;-67
2022/01/11 03:05:54;;;;;;;2.10;1.40;;;;;;;;;;5049450;28;20057;-67
2022/01/11 03:08:21;;;;;;;1.73;1.17;;;;;;;;;;5054725;28;20474;-67
2022/01/11 03:10:48;;;;;;;1.60;1.20;;;;;;;;;;5054548;28;20405;-67
2022/01/11 03:13:16;;;;;;;1.65;1.40;;;;;;;;;;5054313;28;20036;-67
2022/01/11 03:15:42;;;;;;;1.77;1.30;;;;;;;;;;5039055;28;20029;-67
2022/01/11 03:18:09;;;;;;;1.67;1.13;;;;;;;;;;5034332;28;20037;-67
2022/01/11 03:20:36;;;;;;;2.78;1.27;;;;;;;;;;5034523;28;20120;-66
2022/01/11 03:23:02;;;;;;;1.92;1.30;;;;;;;;;;5034749;28;20508;-66
2022/01/11 03:25:28;;;;;;;1.77;1.15;;;;;;;;;;5054223;28;20024;-66
2022/01/11 03:27:54;;;;;;;2.47;1.20;;;;;;;;;;5054281;28;20029;-66
2022/01/11 03:30:20;;;;;;;3.20;1.40;;;;;;;;;;5054057;28;20064;-66
2022/01/11 03:32:47;;;;;;;1.40;1.10;;;;;;;;;;5054517;28;20474;-66
2022/01/11 03:35:13;;;;;;;1.60;1.10;;;;;;;;;;5053908;28;20029;-66
2022/01/11 03:37:40;;;;;;;1.60;1.10;;;;;;;;;;5062970;28;20445;-67
2022/01/11 03:40:08;;;;;;;1.58;1.13;;;;;;;;;;5073990;28;20024;-67
2022/01/11 03:42:34;;;;;;;1.23;1.08;;;;;;;;;;5056636;28;20029;-66
2022/01/11 03:45:00;;;;;;;1.92;1.20;;;;;;;;;;5054089;28;20044;-66
2022/01/11 03:47:26;;;;;;;2.00;1.10;;;;;;;;;;5053597;28;20024;-66
2022/01/11 03:49:52;;;;;;;1.98;1.40;;;;;;;;;;5053799;28;20057;-66
2022/01/11 03:52:19;;;;;;;2.03;1.00;;;;;;;;;;5053113;28;20059;-66
2022/01/11 03:57:20;;;;;;;1.92;1.10;;;;;;;;;;5053162;28;20056;-66
2022/01/11 03:59:46;;;;;;;1.77;1.00;;;;;;;;;;5053465;28;20033;-66
2022/01/11 04:02:13;;;;;;;1.42;1.00;;;;;;;;;;5053125;28;20035;-67
2022/01/11 04:04:39;;;;;;;1.30;1.10;;;;;;;;;;5052464;28;20025;-67
2022/01/11 04:07:05;;;;;;;1.33;1.10;;;;;;;;;;5033377;28;20017;-66
2022/01/11 04:09:31;;;;;;;1.20;1.02;;;;;;;;;;5046394;28;20032;-67
2022/01/11 04:11:57;;;;;;;1.80;1.10;;;;;;;;;;5073153;28;20040;-67
2022/01/11 04:14:25;;;;;;;2.25;1.00;;;;;;;;;;5068600;28;20025;-66
2022/01/11 04:16:52;;;;;;;2.05;1.15;;;;;;;;;;5053011;28;20563;-66
2022/01/11 04:19:18;;;;;;;1.52;0.98;;;;;;;;;;5052463;28;20021;-66
2022/01/11 04:21:44;;;;;;;1.52;1.17;;;;;;;;;;5052708;28;20425;-66
2022/01/11 04:24:12;;;;;;;0.98;0.82;;;;;;;;;;5053147;28;20029;-66
2022/01/11 04:26:38;;;;;;;2.30;1.00;;;;;;;;;;5052640;28;20028;-66
2022/01/11 04:29:04;;;;;;;2.08;1.15;;;;;;;;;;5053111;28;20492;-66
2022/01/11 04:31:30;;;;;;;1.40;0.93;;;;;;;;;;5052339;28;20500;-67
2022/01/11 04:33:56;;;;;;;1.48;0.80;;;;;;;;;;5052791;28;20025;-66
2022/01/11 04:36:22;;;;;;;1.95;1.02;;;;;;;;;;5053389;28;20395;-66
2022/01/11 04:38:48;;;;;;;1.42;0.95;;;;;;;;;;5052415;28;20043;-67
2022/01/11 04:41:15;;;;;;;1.80;1.17;;;;;;;;;;5051245;28;20045;-66
2022/01/11 04:43:41;;;;;;;2.42;1.08;;;;;;;;;;5072332;28;20499;-67
2022/01/11 04:46:07;;;;;;;1.48;0.98;;;;;;;;;;5071531;28;20024;-67
2022/01/11 04:48:33;;;;;;;1.15;0.93;;;;;;;;;;5072629;28;20112;-67
2022/01/11 04:51:03;;;;;;;1.40;1.02;;;;;;;;;;5072628;28;20511;-66
2022/01/11 04:53:29;;;;;;;2.35;1.15;;;;;;;;;;5071806;28;20500;-66
2022/01/11 04:55:56;;;;;;;1.38;0.90;;;;;;;;;;5072500;28;20024;-66
2022/01/11 04:58:22;;;;;;;1.92;1.30;;;;;;;;;;5072198;28;20025;-66
2022/01/11 05:00:48;;;;;;;1.30;0.95;;;;;;;;;;5072550;28;20032;-67
2022/01/11 05:03:14;;;;;;;1.83;1.17;;;;;;;;;;5072643;28;20395;-67
2022/01/11 05:05:40;;;;;;;1.75;1.13;;;;;;;;;;5062991;28;20017;-67
2022/01/11 05:08:07;;;;;;;1.98;1.20;;;;;;;;;;5052346;28;20025;-66
2022/01/11 05:10:33;;;;;;;1.60;1.30;;;;;;;;;;5052229;28;20029;-66
2022/01/11 05:12:59;;;;;;;1.67;1.17;;;;;;;;;;5052309;28;20086;-66
2022/01/11 05:15:26;;;;;;;2.55;1.45;;;;;;;;;;5057366;28;20399;-67
2022/01/11 05:17:53;;;;;;;1.80;1.30;;;;;;;;;;5052001;28;20025;-66
2022/01/11 05:20:19;;;;;;;1.60;1.08;;;;;;;;;;5051854;28;20057;-66
2022/01/11 05:22:47;;;;;;;1.70;1.10;;;;;;;;;;5052011;28;20107;-66
2022/01/11 05:25:14;;;;;;;1.45;1.10;;;;;;;;;;5052099;28;20480;-66
2022/01/11 05:27:41;;;;;;;1.48;1.13;;;;;;;;;;5051917;28;20484;-66
2022/01/11 05:30:07;;;;;;;1.40;1.00;;;;;;;;;;5051144;28;20543;-66
2022/01/11 05:32:35;;;;;;;1.83;1.10;;;;;;;;;;5052038;28;20504;-66
2022/01/11 05:35:02;;;;;;;1.58;1.15;;;;;;;;;;5050660;28;20025;-66
2022/01/11 05:37:28;;;;;;;1.70;1.00;;;;;;;;;;5051960;28;20029;-66
2022/01/11 05:39:54;;;;;;;2.10;1.10;;;;;;;;;;5052055;28;20488;-66
2022/01/11 05:42:20;;;;;;;1.13;0.93;;;;;;;;;;5036256;28;20025;-67
2022/01/11 05:44:47;;;;;;;1.73;1.35;;;;;;;;;;5030552;28;20026;-66
2022/01/11 05:47:13;;;;;;;1.60;1.20;;;;;;;;;;5062155;28;20021;-66
2022/01/11 05:49:39;;;;;;;2.00;1.08;;;;;;;;;;5071823;28;20043;-66
2022/01/11 05:52:05;;;;;;;1.95;1.42;;;;;;;;;;5071349;28;20024;-66
2022/01/11 05:54:32;;;;;;;1.85;1.30;;;;;;;;;;5072012;28;20029;-67
2022/01/11 05:56:58;;;;;;;1.75;1.40;;;;;;;;;;5071766;28;20064;-67
2022/01/11 05:59:24;;;;;;;1.40;0.90;;;;;;;;;;5071822;28;20032;-67
2022/01/11 06:01:50;;;;;;;2.90;1.20;;;;;;;;;;5071504;28;20062;-66
2022/01/11 06:04:16;;;;;;;1.88;1.10;;;;;;;;;;5071614;28;20107;-67
2022/01/11 06:06:42;;;;;;;2.95;1.52;;;;;;;;;;5053648;28;20024;-67
2022/01/11 06:09:08;;;;;;;2.42;1.30;;;;;;;;;;5051288;28;20087;-66
2022/01/11 06:11:34;;;;;;;1.85;1.10;;;;;;;;;;5050935;28;20060;-66
2022/01/11 06:14:00;;;;;;;1.15;1.00;;;;;;;;;;5050198;28;20060;-66
2022/01/11 06:16:26;;;;;;;2.15;1.00;;;;;;;;;;5031619;28;20025;-66
2022/01/11 06:18:52;;;;;;;1.77;1.27;;;;;;;;;;5052385;28;20433;-66
2022/01/11 06:21:18;;;;;;;1.38;1.13;;;;;;;;;;5071012;28;20048;-66
2022/01/11 06:23:48;;;;;;;1.92;1.20;;;;;;;;;;5071433;28;20031;-66
2022/01/11 06:26:15;;;;;;;1.63;1.20;;;;;;;;;;5071297;28;20032;-66
2022/01/11 06:28:42;;;;;;;1.42;1.08;;;;;;;;;;5071519;28;20075;-66
2022/01/11 06:31:08;;;;;;;1.83;1.40;;;;;;;;;;5071562;28;20025;-66
2022/01/11 06:33:34;;;;;;;2.55;1.00;;;;;;;;;;5070675;28;20036;-66
2022/01/11 06:36:01;;;;;;;2.22;1.30;;;;;;;;;;5071448;28;20380;-66
2022/01/11 06:38:27;;;;;;;1.33;1.02;;;;;;;;;;5071237;28;20032;-66
2022/01/11 06:40:53;;;;;;;1.20;1.00;;;;;;;;;;5068959;28;20046;-67
2022/01/11 06:43:19;;;;;;;1.02;0.90;;;;;;;;;;5054463;28;20518;-67
2022/01/11 06:45:45;;;;;;;1.88;1.00;;;;;;;;;;5054811;28;20052;-67
2022/01/11 06:48:11;;;;;;;1.55;1.30;;;;;;;;;;5054957;28;20017;-67
2022/01/11 06:50:37;;;;;;;1.67;1.23;;;;;;;;;;5059691;28;20040;-67
2022/01/11 06:53:03;;;;;;;1.65;1.27;;;;;;;;;;5074316;28;20170;-67
2022/01/11 06:55:30;;;;;;;2.33;1.30;;;;;;;;;;5074950;28;20103;-67
2022/01/11 06:57:56;;;;;;;2.13;1.38;;;;;;;;;;5074564;28;20119;-67
2022/01/11 07:00:22;;;;;;;3.15;1.08;;;;;;;;;;5074449;28;20079;-66
2022/01/11 07:02:50;;;;;;;1.83;1.20;;;;;;;;;;5059285;28;20021;-66
2022/01/11 07:05:16;;;;;;;1.92;1.15;;;;;;;;;;5043914;28;20107;-66
2022/01/11 07:07:43;;;;;;;2.53;1.50;;;;;;;;;;5054951;28;20023;-67
2022/01/11 07:10:09;;;;;;;1.63;1.23;;;;;;;;;;5050547;28;20108;-67
2022/01/11 07:12:35;;;;;;;2.65;1.80;;;;;;;;;;5052624;28;20443;-67
2022/01/11 07:15:02;;;;;;;1.67;1.30;;;;;;;;;;5054800;28;20083;-67
2022/01/11 07:17:28;;;;;;;4.50;1.42;;;;;;;;;;5053930;28;20029;-67
2022/01/11 07:19:54;;;;;;;3.30;1.83;;;;;;;;;;5053225;28;20037;-67
2022/01/11 07:22:20;;;;;;;4.00;1.80;;;;;;;;;;5053631;28;20056;-67
2022/01/11 07:24:46;;;;;;;3.90;1.88;;;;;;;;;;5063989;28;20032;-67
2022/01/11 07:27:14;;;;;;;4.70;2.65;;;;;;;;;;5034452;28;20432;-67
2022/01/11 07:29:40;;;;;;;6.85;2.42;;;;;;;;;;5034457;28;20120;-67
2022/01/11 07:32:06;;;;;;;4.32;2.42;;;;;;;;;;5033510;28;20034;-67
2022/01/11 07:34:32;;;;;;;3.88;2.15;;;;;;;;;;5033861;28;20080;-67
2022/01/11 07:36:58;;;;;;;6.03;2.15;;;;;;;;;;5034026;28;20493;-67
2022/01/11 07:39:24;;;;;;;4.72;2.30;;;;;;;;;;5033401;28;20030;-67
2022/01/11 07:41:51;;;;;;;5.15;2.60;;;;;;;;;;5044277;28;20024;-68
2022/01/11 07:44:18;;;;;;;5.72;2.45;;;;;;;;;;5052824;28;20032;-67
2022/01/11 07:46:45;;;;;;;7.53;2.75;;;;;;;;;;5053503;28;20104;-66
2022/01/11 07:49:11;;;;;;;4.25;2.67;;;;;;;;;;5053394;28;20021;-66
2022/01/11 07:51:37;;;;;;;6.30;3.17;;;;;;;;;;5052285;28;20491;-66
2022/01/11 07:54:04;;;;;;;4.63;2.78;;;;;;;;;;5047712;28;20037;-67
2022/01/11 07:56:30;;;;;;;7.32;2.17;;;;;;;;;;5052301;28;20033;-66
2022/01/11 07:58:56;;;;;;;4.80;3.00;;;;;;;;;;5049973;28;20479;-66
2022/01/11 08:01:22;;;;;;;6.90;2.83;;;;;;;;;;5048139;28;20047;-67
2022/01/11 08:03:48;;;;;;;7.35;3.10;;;;;;;;;;5048712;28;20071;-67
2022/01/11 08:06:15;;;;;;;8.68;3.47;;;;;;;;;;5049816;28;20044;-68
2022/01/11 08:08:41;;;;;;;8.18;3.05;;;;;;;;;;5046341;28;20044;-68
2022/01/11 08:11:08;;;;;;;6.88;2.80;;;;;;;;;;5043066;28;20103;-68
2022/01/11 08:13:34;;;;;;;5.32;3.33;;;;;;;;;;5046445;28;20522;-68
2022/01/11 08:16:01;;;;;;;4.55;2.90;;;;;;;;;;5041573;28;20064;-67
2022/01/11 08:18:27;;;;;;;5.00;3.03;;;;;;;;;;5031895;28;20730;-67
2022/01/11 08:20:53;;;;;;;3.88;3.15;;;;;;;;;;5033462;28;20515;-67
2022/01/11 08:23:20;;;;;;;4.00;2.90;;;;;;;;;;5038662;28;20381;-67
2022/01/11 08:25:46;;;;;;;5.60;2.60;;;;;;;;;;5041135;28;20112;-67
2022/01/11 08:28:13;;;;;;;4.63;3.00;;;;;;;;;;5051001;28;20020;-67
2022/01/11 08:30:39;;;;;;;5.22;3.00;;;;;;;;;;5044228;28;20048;-67
2022/01/11 08:33:06;;;;;;;5.18;3.38;;;;;;;;;;5049161;28;20055;-67
2022/01/11 08:35:33;;;;;;;5.88;2.90;;;;;;;;;;5042045;28;20116;-67
2022/01/11 08:38:00;;;;;;;4.93;3.17;;;;;;;;;;5035745;28;20376;-67
2022/01/11 08:40:26;;;;;;;4.20;3.10;;;;;;;;;;5049393;28;20032;-67
2022/01/11 08:42:53;;;;;;;7.07;2.90;;;;;;;;;;5039889;28;20052;-67
2022/01/11 08:45:19;;;;;;;8.38;3.13;;;;;;;;;;5050300;28;20032;-68
2022/01/11 08:47:46;;;;;;;6.10;3.92;;;;;;;;;;5041918;28;20029;-67
2022/01/11 08:50:12;;;;;;;7.20;2.83;;;;;;;;;;5049506;28;20508;-67
2022/01/11 08:52:42;;;;;;;7.38;3.25;;;;;;;;;;5043654;28;20033;-67
2022/01/11 08:55:11;;;;;;;4.57;3.10;;;;;;;;;;5044826;28;20025;-67
2022/01/11 08:57:37;;;;;;;7.55;3.40;;;;;;;;;;5042184;28;20053;-68
2022/01/11 09:00:06;;;;;;;4.70;3.38;;;;;;;;;;5055649;28;20683;-67
2022/01/11 09:02:35;;;;;;;5.43;3.10;;;;;;;;;;5037239;28;20021;-68
2022/01/11 09:05:04;;;;;;;5.82;3.72;;;;;;;;;;5036474;28;20052;-67
2022/01/11 09:07:30;;;;;;;6.78;3.17;;;;;;;;;;5050537;28;20415;-67
2022/01/11 09:09:56;;;;;;;8.13;3.40;;;;;;;;;;5040389;28;20036;-68
2022/01/11 09:12:22;;;;;;;6.78;3.38;;;;;;;;;;5037698;28;20559;-67
2022/01/11 09:14:48;;;;;;;7.35;2.90;;;;;;;;;;5043535;28;20100;-67
2022/01/11 09:17:15;;;;;;;5.57;3.15;;;;;;;;;;5043927;28;20484;-67
2022/01/11 09:19:43;;;;;;;5.78;3.50;;;;;;;;;;5042497;28;20381;-67
2022/01/11 09:22:09;;;;;;;6.35;3.33;;;;;;;;;;5037635;28;20144;-67
2022/01/11 09:24:36;;;;;;;5.22;3.10;;;;;;;;;;5039168;28;20565;-67
2022/01/11 09:27:04;;;;;;;7.00;3.47;;;;;;;;;;5048536;28;20025;-67
2022/01/11 09:29:32;;;;;;;8.32;3.95;;;;;;;;;;5050447;28;20163;-67
2022/01/11 09:31:59;;;;;;;6.82;3.50;;;;;;;;;;5051206;28;20036;-67
2022/01/11 09:34:25;;;;;;;4.85;3.38;;;;;;;;;;5041140;28;20020;-67
2022/01/11 09:36:52;;;;;;;7.72;3.45;;;;;;;;;;5037674;28;20082;-67
2022/01/11 09:39:19;;;;;;;8.68;3.50;;;;;;;;;;5043168;28;20033;-67
2022/01/11 09:41:45;;;;;;;6.65;3.92;;;;;;;;;;5047024;28;20033;-68
2022/01/11 09:44:12;;;;;;;7.35;3.58;;;;;;;;;;5049993;28;20025;-67
2022/01/11 09:46:38;;;;;;;9.43;3.50;;;;;;;;;;5044126;28;20021;-67
2022/01/11 09:49:04;;;;;;;5.43;3.00;;;;;;;;;;5049042;28;20036;-66
2022/01/11 09:51:31;;;;;;;7.63;3.70;;;;;;;;;;5037274;28;20146;-67
2022/01/11 09:53:57;;;;;;;9.45;3.50;;;;;;;;;;5039104;28;20025;-67
2022/01/11 09:56:23;;;;;;;5.40;3.50;;;;;;;;;;5033925;28;20428;-68
2022/01/11 09:58:49;;;;;;;5.47;3.42;;;;;;;;;;5036629;28;20041;-67
2022/01/11 10:01:16;;;;;;;4.47;3.30;;;;;;;;;;5039305;28;20028;-67
2022/01/11 10:04:01;;;;;;;7.00;3.45;;;;;;;;;;5048204;28;20024;-67
2022/01/11 10:06:27;;;;;;;8.07;3.28;;;;;;;;;;5038295;28;20032;-67
2022/01/11 10:09:13;;;;;;;5.43;3.55;;;;;;;;;;5040657;28;20022;-67
2022/01/11 10:11:41;;;;;;;4.80;3.17;;;;;;;;;;5042500;28;20022;-67
2022/01/11 10:14:25;;;;;;;4.82;3.15;;;;;;;;;;5036543;28;20170;-67
2022/01/11 10:17:10;;;;;;;4.90;3.17;;;;;;;;;;5046992;28;20029;-67
2022/01/11 10:19:38;;;;;;;6.95;3.70;;;;;;;;;;5044247;28;20021;-67
2022/01/11 10:22:05;;;;;;;6.18;3.55;;;;;;;;;;5039676;28;20033;-68
2022/01/11 10:24:39;;;;;;;8.27;3.33;;;;;;;;;;5048062;28;20067;-67
2022/01/11 10:27:17;;;;;;;5.28;3.42;;;;;;;;;;5034933;28;20025;-67
2022/01/11 10:29:53;;;;;;;5.40;3.03;;;;;;;;;;5036715;28;20029;-67
2022/01/11 10:32:27;;;;;;;4.57;3.28;;;;;;;;;;5040757;28;20022;-67
2022/01/11 10:34:55;;;;;;;4.07;2.85;;;;;;;;;;5043391;28;20104;-68
2022/01/11 10:37:27;;;;;;;6.00;3.40;;;;;;;;;;5044935;28;20087;-67
2022/01/11 10:40:00;;;;;;;4.07;2.90;;;;;;;;;;5046272;28;20108;-67
2022/01/11 10:42:28;;;;;;;4.80;3.15;;;;;;;;;;5035930;28;20025;-67
2022/01/11 10:44:58;;;;;;;5.10;3.17;;;;;;;;;;5049441;28;20033;-67
2022/01/11 10:47:36;;;;;;;5.35;2.92;;;;;;;;;;5041562;28;20026;-67
2022/01/11 10:50:05;;;;;;;4.57;3.05;;;;;;;;;;5026445;28;20084;-69
2022/01/11 10:52:32;;;;;;;5.78;3.10;;;;;;;;;;5040222;28;20483;-67
2022/01/11 10:54:59;;;;;;;5.07;3.35;;;;;;;;;;5044645;28;20052;-69
2022/01/11 10:57:29;;;;;;;4.30;2.75;;;;;;;;;;5043004;28;20530;-68
2022/01/11 11:00:08;;;;;;;5.18;2.67;;;;;;;;;;5049070;28;20033;-68
2022/01/11 11:02:34;;;;;;;5.28;2.75;;;;;;;;;;5045514;28;20029;-67
2022/01/11 11:05:10;;;;;;;6.18;2.53;;;;;;;;;;5046814;28;20538;-67
2022/01/11 11:07:36;;;;;;;5.40;3.17;;;;;;;;;;5045920;28;20025;-67
2022/01/11 11:10:02;;;;;;;5.28;2.90;;;;;;;;;;5046337;28;20056;-67
2022/01/11 11:12:28;;;;;;;4.13;2.47;;;;;;;;;;5050015;28;20075;-67
2022/01/11 11:14:56;;;;;;;4.50;2.78;;;;;;;;;;5049850;28;20086;-67
2022/01/11 11:17:41;;;;;;;5.95;2.60;;;;;;;;;;5042842;28;20032;-67
2022/01/11 11:20:11;;;;;;;4.82;2.58;;;;;;;;;;5047747;28;20027;-68
2022/01/11 11:22:37;;;;;;;3.72;2.78;;;;;;;;;;5040643;28;20060;-68
2022/01/11 11:25:04;;;;;;;5.78;2.83;;;;;;;;;;5050544;28;20013;-67
2022/01/11 11:27:31;;;;;;;3.78;2.42;;;;;;;;;;5049552;28;20096;-67
2022/01/11 11:29:58;;;;;;;4.32;2.97;;;;;;;;;;5039246;28;20094;-68
2022/01/11 11:32:25;;;;;;;4.78;2.90;;;;;;;;;;5042138;28;20040;-67
2022/01/11 11:34:51;;;;;;;4.75;2.90;;;;;;;;;;5037043;28;20115;-67
2022/01/11 11:37:46;;;;;;;3.80;2.40;;;;;;;;;;5046552;28;20080;-68
2022/01/11 11:40:17;;;;;;;17.83;2.53;;;;;;;;;;5043971;28;20122;-70
2022/01/11 11:42:44;;;;;;;6.78;2.00;;;;;;;;;;5041597;28;20403;-68
2022/01/11 11:45:18;;;;;;;2.83;1.50;;;;;;;;;;5047674;28;20023;-68
2022/01/11 11:47:45;;;;;;;3.70;1.27;;;;;;;;;;5041290;28;20037;-68
2022/01/11 11:50:21;;;;;;;4.63;1.30;;;;;;;;;;5033181;28;20029;-67
2022/01/11 11:52:48;;;;;;;2.63;1.35;;;;;;;;;;5033973;28;20053;-67
2022/01/11 11:55:19;;;;;;;3.08;1.50;;;;;;;;;;5046391;28;20472;-68
2022/01/11 11:57:46;;;;;;;3.03;1.30;;;;;;;;;;5036435;28;20125;-68
2022/01/11 12:00:12;;;;;;;1.77;1.20;;;;;;;;;;5032539;28;20078;-68
2022/01/11 12:02:40;;;;;;;3.83;1.42;;;;;;;;;;5049682;28;20082;-68
2022/01/11 12:05:14;;;;;;;5.35;1.42;;;;;;;;;;5048860;28;20049;-68
2022/01/11 12:07:43;;;;;;;2.22;1.10;;;;;;;;;;5033396;28;20022;-68
2022/01/11 12:10:15;;;;;;;2.50;1.33;;;;;;;;;;5046126;28;20048;-68
2022/01/11 12:12:53;;;;;;;3.70;1.55;;;;;;;;;;5058183;28;20020;-68
2022/01/11 12:15:22;;;;;;;2.85;1.33;;;;;;;;;;5060868;28;20025;-68
2022/01/11 12:17:57;;;;;;;6.88;1.90;;;;;;;;;;5053469;28;20104;-68
2022/01/11 12:20:42;;;;;;;3.00;1.10;;;;;;;;;;5053205;28;20070;-68
2022/01/11 12:23:09;;;;;;;1.50;1.00;;;;;;;;;;5051890;28;20514;-68
2022/01/11 12:25:42;;;;;;;2.60;1.35;;;;;;;;;;5052815;28;20056;-68
2022/01/11 12:28:14;;;;;;;4.10;1.37;;;;;;;;;;5052193;28;20029;-68
2022/01/11 12:30:41;;;;;;;3.42;1.70;;;;;;;;;;5053186;28;20384;-68
2022/01/11 12:33:25;;;;;;;5.78;2.92;;;;;;;;;;5051942;28;20072;-68
2022/01/11 12:36:05;;;;;;;10.52;4.50;;;;;;;;;;5052990;28;20051;-68
2022/01/11 12:38:33;;;;;;;6.20;3.30;;;;;;;;;;5052770;28;20107;-68
2022/01/11 12:41:19;;;;;;;11.80;3.63;;;;;;;;;;5048873;28;20060;-68
2022/01/11 12:43:49;;;;;;;7.90;3.50;;;;;;;;;;5032571;28;20025;-68
2022/01/11 12:46:17;;;;;;;7.57;3.70;;;;;;;;;;5065101;28;20073;-68
2022/01/11 12:48:48;;;;;;;6.63;4.05;;;;;;;;;;5072787;28;20028;-68
2022/01/11 12:51:29;;;;;;;7.25;2.58;;;;;;;;;;5071601;28;20028;-68
2022/01/11 12:54:15;;;;;;;6.53;3.47;;;;;;;;;;5072469;28;20021;-67
2022/01/11 12:56:42;;;;;;;7.90;3.50;;;;;;;;;;5071936;28;20047;-68
2022/01/11 12:59:08;;;;;;;6.15;2.95;;;;;;;;;;5072803;28;20036;-68
2022/01/11 13:01:34;;;;;;;10.32;3.03;;;;;;;;;;5056121;28;20043;-68
2022/01/11 13:04:02;;;;;;;8.68;2.75;;;;;;;;;;5050760;28;20013;-68
2022/01/11 13:06:32;;;;;;;7.38;3.63;;;;;;;;;;5050986;28;20673;-68
2022/01/11 13:08:59;;;;;;;8.05;3.75;;;;;;;;;;5049662;28;20013;-67
2022/01/11 13:11:25;;;;;;;7.20;2.72;;;;;;;;;;5048745;28;20128;-68
2022/01/11 13:14:29;;;;;;;8.25;3.15;;;;;;;;;;5041270;28;20093;-67
2022/01/11 13:17:00;;;;;;;6.15;3.13;;;;;;;;;;5055237;28;20021;-67
2022/01/11 13:19:26;;;;;;;6.82;3.00;;;;;;;;;;5067349;28;20543;-68
2022/01/11 13:22:02;;;;;;;12.05;3.38;;;;;;;;;;5050171;28;20082;-67
2022/01/11 13:24:35;;;;;;;8.15;2.88;;;;;;;;;;5039057;28;20031;-68
2022/01/11 13:27:08;;;;;;;6.70;3.10;;;;;;;;;;5050812;28;20028;-67
2022/01/11 13:29:34;;;;;;;6.67;4.00;;;;;;;;;;5052094;28;20029;-68
2022/01/11 13:32:00;;;;;;;7.55;3.45;;;;;;;;;;5045281;28;20620;-68
2022/01/11 13:34:27;;;;;;;4.28;3.00;;;;;;;;;;5032476;28;20523;-67
2022/01/11 13:36:57;;;;;;;5.50;3.22;;;;;;;;;;5031954;28;20100;-67
2022/01/11 13:39:25;;;;;;;5.90;3.33;;;;;;;;;;5031579;28;20111;-68
2022/01/11 13:41:56;;;;;;;5.22;3.42;;;;;;;;;;5040333;28;20032;-68
2022/01/11 13:44:26;;;;;;;5.13;2.90;;;;;;;;;;5051789;28;20029;-68
2022/01/11 13:46:56;;;;;;;6.20;3.60;;;;;;;;;;5051332;28;20025;-68
2022/01/11 13:49:27;;;;;;;4.70;3.30;;;;;;;;;;5056160;28;20033;-68
2022/01/11 13:51:55;;;;;;;7.40;3.20;;;;;;;;;;5054316;28;20051;-68
2022/01/11 13:54:22;;;;;;;6.32;3.30;;;;;;;;;;5048300;28;20037;-68
2022/01/11 13:56:50;;;;;;;5.65;3.40;;;;;;;;;;5055794;28;20110;-67
2022/01/11 13:59:26;;;;;;;6.78;3.65;;;;;;;;;;5055189;28;20033;-67
2022/01/11 14:02:14;;;;;;;25.10;8.93;;;;;;;;;;5048618;28;20083;-68
2022/01/11 14:04:46;;;;;;;22.10;7.85;;;;;;;;;;5047858;28;20021;-67
2022/01/11 14:07:16;;;;;;;18.00;7.78;;;;;;;;;;5047614;28;20426;-70
2022/01/11 14:09:49;;;;;;;17.45;7.25;;;;;;;;;;5050562;28;20416;-71
2022/01/11 14:12:22;;;;;;;;;;;;;;;;;;5050926;28;20029;-71
2022/01/11 14:15:02;;;;;;;14.68;6.00;;;;;;;;;;5051438;28;19913;-71
2022/01/11 14:17:29;;;;;;;14.18;6.10;;;;;;;;;;5042928;28;20026;-71
2022/01/11 14:20:00;;;;;;;13.57;5.30;;;;;;;;;;5046035;28;20028;-70
2022/01/11 14:22:46;;;;;;;10.15;4.93;;;;;;;;;;5051044;28;20043;-71
2022/01/11 14:25:20;;;;;;;12.65;5.10;;;;;;;;;;5051900;28;20020;-71
2022/01/11 14:27:56;;;;;;;11.43;4.93;;;;;;;;;;5038484;28;20025;-71
2022/01/11 14:30:22;;;;;;;13.68;5.15;;;;;;;;;;5053038;28;20044;-72
2022/01/11 14:32:50;;;;;;;13.60;5.15;;;;;;;;;;5048265;28;20055;-72
2022/01/11 14:35:18;;;;;;;12.35;4.47;;;;;;;;;;5054074;28;20041;-71
2022/01/11 14:37:44;;;;;;;11.23;4.60;;;;;;;;;;5046397;28;20373;-71
2022/01/11 14:40:19;;;;;;;10.70;4.40;;;;;;;;;;5053694;28;20027;-72
2022/01/11 14:42:45;;;;;;;9.63;4.43;;;;;;;;;;5048469;28;20086;-72
2022/01/11 14:45:13;;;;;;;10.32;3.97;;;;;;;;;;5049791;28;20499;-71
2022/01/11 14:47:50;;;;;;;11.27;4.32;;;;;;;;;;5040697;28;20035;-72
2022/01/11 14:50:18;;;;;;;9.20;4.22;;;;;;;;;;5051981;28;20029;-71
2022/01/11 14:52:50;;;;;;;10.50;4.55;;;;;;;;;;5045405;28;20029;-71
2022/01/11 14:55:18;;;;;;;10.25;3.78;;;;;;;;;;5054298;28;20027;-71